sensor_id;sensor_type;location;lat;lon;timestamp;P1;durP1;ratioP1;P2;durP2;ratioP2
69053;SDS011;56125;52.242;4.756;2023-02-28T00:03:27;1.00;;;0.50;;
69053;SDS011;56125;52.242;4.756;2023-02-28T00:08:28;1.55;;;0.60;;
69053;SDS011;56125;52.242;4.756;2023-02-28T00:13:29;1.75;;;0.90;;
69053;SDS011;56125;52.242;4.756;2023-02-28T00:18:30;1.02;;;0.60;;
69053;SDS011;56125;52.242;4.756;2023-02-28T00:23:32;0.73;;;0.60;;
69053;SDS011;56125;52.242;4.756;2023-02-28T00:28:33;1.00;;;0.63;;
69053;SDS011;56125;52.242;4.756;2023-02-28T00:33:34;1.15;;;0.65;;
69053;SDS011;56125;52.242;4.756;2023-02-28T00:38:36;1.23;;;0.68;;
69053;SDS011;56125;52.242;4.756;2023-02-28T00:43:38;1.20;;;0.70;;
69053;SDS011;56125;52.242;4.756;2023-02-28T00:48:39;0.80;;;0.60;;
69053;SDS011;56125;52.242;4.756;2023-02-28T00:53:40;1.17;;;0.90;;
69053;SDS011;56125;52.242;4.756;2023-02-28T00:58:41;1.30;;;0.77;;
69053;SDS011;56125;52.242;4.756;2023-02-28T01:03:42;1.02;;;0.60;;
69053;SDS011;56125;52.242;4.756;2023-02-28T01:08:43;1.23;;;0.80;;
69053;SDS011;56125;52.242;4.756;2023-02-28T01:13:45;2.80;;;0.90;;
69053;SDS011;56125;52.242;4.756;2023-02-28T01:18:46;1.10;;;0.70;;
69053;SDS011;56125;52.242;4.756;2023-02-28T01:23:47;3.25;;;0.70;;
69053;SDS011;56125;52.242;4.756;2023-02-28T01:28:50;1.10;;;0.80;;
69053;SDS011;56125;52.242;4.756;2023-02-28T01:33:52;1.40;;;0.80;;
69053;SDS011;56125;52.242;4.756;2023-02-28T01:38:53;1.17;;;0.70;;
69053;SDS011;56125;52.242;4.756;2023-02-28T01:43:56;1.70;;;0.75;;
69053;SDS011;56125;52.242;4.756;2023-02-28T01:49:11;1.15;;;0.77;;
69053;SDS011;56125;52.242;4.756;2023-02-28T01:54:21;1.90;;;0.80;;
69053;SDS011;56125;52.242;4.756;2023-02-28T01:59:40;2.15;;;0.80;;
69053;SDS011;56125;52.242;4.756;2023-02-28T02:10:35;1.20;;;0.70;;
69053;SDS011;56125;52.242;4.756;2023-02-28T02:21:13;2.13;;;0.80;;
69053;SDS011;56125;52.242;4.756;2023-02-28T02:42:13;1.27;;;0.50;;
69053;SDS011;56125;52.242;4.756;2023-02-28T02:47:20;1.33;;;0.80;;
69053;SDS011;56125;52.242;4.756;2023-02-28T02:52:28;1.40;;;0.73;;
69053;SDS011;56125;52.242;4.756;2023-02-28T02:57:47;3.00;;;1.00;;
69053;SDS011;56125;52.242;4.756;2023-02-28T03:02:54;1.75;;;0.95;;
69053;SDS011;56125;52.242;4.756;2023-02-28T03:07:56;1.25;;;0.80;;
69053;SDS011;56125;52.242;4.756;2023-02-28T03:13:00;1.55;;;0.90;;
69053;SDS011;56125;52.242;4.756;2023-02-28T03:18:24;1.70;;;0.90;;
69053;SDS011;56125;52.242;4.756;2023-02-28T03:23:45;1.27;;;0.90;;
69053;SDS011;56125;52.242;4.756;2023-02-28T03:34:07;1.73;;;0.70;;
69053;SDS011;56125;52.242;4.756;2023-02-28T03:39:19;1.58;;;0.90;;
69053;SDS011;56125;52.242;4.756;2023-02-28T03:44:25;1.30;;;0.82;;
69053;SDS011;56125;52.242;4.756;2023-02-28T03:49:32;3.15;;;0.98;;
69053;SDS011;56125;52.242;4.756;2023-02-28T03:54:45;1.20;;;0.80;;
69053;SDS011;56125;52.242;4.756;2023-02-28T04:05:25;2.05;;;0.75;;
69053;SDS011;56125;52.242;4.756;2023-02-28T04:10:28;1.10;;;0.75;;
69053;SDS011;56125;52.242;4.756;2023-02-28T04:15:29;3.72;;;0.70;;
69053;SDS011;56125;52.242;4.756;2023-02-28T04:20:30;1.50;;;0.85;;
69053;SDS011;56125;52.242;4.756;2023-02-28T04:25:31;1.63;;;0.82;;
69053;SDS011;56125;52.242;4.756;2023-02-28T04:30:32;1.45;;;0.80;;
69053;SDS011;56125;52.242;4.756;2023-02-28T04:35:33;1.00;;;0.70;;
69053;SDS011;56125;52.242;4.756;2023-02-28T04:40:34;1.83;;;0.90;;
69053;SDS011;56125;52.242;4.756;2023-02-28T04:45:36;2.83;;;0.70;;
69053;SDS011;56125;52.242;4.756;2023-02-28T04:50:37;1.88;;;0.63;;
69053;SDS011;56125;52.242;4.756;2023-02-28T04:55:38;1.50;;;1.10;;
69053;SDS011;56125;52.242;4.756;2023-02-28T05:00:40;1.08;;;0.73;;
69053;SDS011;56125;52.242;4.756;2023-02-28T05:05:41;1.10;;;0.77;;
69053;SDS011;56125;52.242;4.756;2023-02-28T05:10:42;2.38;;;0.90;;
69053;SDS011;56125;52.242;4.756;2023-02-28T05:15:43;1.05;;;0.60;;
69053;SDS011;56125;52.242;4.756;2023-02-28T05:20:44;1.75;;;0.70;;
69053;SDS011;56125;52.242;4.756;2023-02-28T05:25:45;0.95;;;0.70;;
69053;SDS011;56125;52.242;4.756;2023-02-28T05:30:46;0.93;;;0.60;;
69053;SDS011;56125;52.242;4.756;2023-02-28T05:35:48;1.02;;;0.77;;
69053;SDS011;56125;52.242;4.756;2023-02-28T05:40:49;1.45;;;0.77;;
69053;SDS011;56125;52.242;4.756;2023-02-28T05:45:50;1.70;;;0.80;;
69053;SDS011;56125;52.242;4.756;2023-02-28T05:50:51;1.45;;;0.70;;
69053;SDS011;56125;52.242;4.756;2023-02-28T05:55:52;1.55;;;0.70;;
69053;SDS011;56125;52.242;4.756;2023-02-28T06:00:53;2.10;;;0.80;;
69053;SDS011;56125;52.242;4.756;2023-02-28T06:05:54;1.15;;;0.65;;
69053;SDS011;56125;52.242;4.756;2023-02-28T06:10:55;1.15;;;0.80;;
69053;SDS011;56125;52.242;4.756;2023-02-28T06:15:56;2.08;;;0.80;;
69053;SDS011;56125;52.242;4.756;2023-02-28T06:21:00;0.90;;;0.70;;
69053;SDS011;56125;52.242;4.756;2023-02-28T06:26:01;1.33;;;0.90;;
69053;SDS011;56125;52.242;4.756;2023-02-28T06:31:09;1.15;;;0.70;;
69053;SDS011;56125;52.242;4.756;2023-02-28T06:36:12;3.35;;;0.85;;
69053;SDS011;56125;52.242;4.756;2023-02-28T06:41:14;2.40;;;0.82;;
69053;SDS011;56125;52.242;4.756;2023-02-28T06:46:15;1.33;;;0.88;;
69053;SDS011;56125;52.242;4.756;2023-02-28T06:51:18;0.93;;;0.75;;
69053;SDS011;56125;52.242;4.756;2023-02-28T06:56:24;1.65;;;0.73;;
69053;SDS011;56125;52.242;4.756;2023-02-28T07:01:25;2.10;;;0.70;;
69053;SDS011;56125;52.242;4.756;2023-02-28T07:06:28;1.15;;;0.60;;
69053;SDS011;56125;52.242;4.756;2023-02-28T07:11:29;1.48;;;0.70;;
69053;SDS011;56125;52.242;4.756;2023-02-28T07:16:30;0.82;;;0.70;;
69053;SDS011;56125;52.242;4.756;2023-02-28T07:21:31;1.05;;;0.77;;
69053;SDS011;56125;52.242;4.756;2023-02-28T07:26:32;2.08;;;0.80;;
69053;SDS011;56125;52.242;4.756;2023-02-28T07:31:34;1.10;;;0.80;;
69053;SDS011;56125;52.242;4.756;2023-02-28T07:36:35;1.25;;;0.90;;
69053;SDS011;56125;52.242;4.756;2023-02-28T07:41:36;1.25;;;0.80;;
69053;SDS011;56125;52.242;4.756;2023-02-28T07:46:43;1.17;;;0.80;;
69053;SDS011;56125;52.242;4.756;2023-02-28T07:51:44;2.22;;;0.70;;
69053;SDS011;56125;52.242;4.756;2023-02-28T07:56:45;1.60;;;0.70;;
69053;SDS011;56125;52.242;4.756;2023-02-28T08:01:46;0.98;;;0.63;;
69053;SDS011;56125;52.242;4.756;2023-02-28T08:06:50;1.13;;;0.70;;
69053;SDS011;56125;52.242;4.756;2023-02-28T08:11:53;1.10;;;0.90;;
69053;SDS011;56125;52.242;4.756;2023-02-28T08:16:54;0.83;;;0.70;;
69053;SDS011;56125;52.242;4.756;2023-02-28T08:21:55;1.55;;;0.70;;
69053;SDS011;56125;52.242;4.756;2023-02-28T08:26:57;1.42;;;0.70;;
69053;SDS011;56125;52.242;4.756;2023-02-28T08:31:58;1.83;;;0.60;;
69053;SDS011;56125;52.242;4.756;2023-02-28T08:36:59;1.08;;;0.70;;
69053;SDS011;56125;52.242;4.756;2023-02-28T08:42:00;0.90;;;0.60;;
69053;SDS011;56125;52.242;4.756;2023-02-28T08:47:02;1.00;;;0.90;;
69053;SDS011;56125;52.242;4.756;2023-02-28T08:52:04;1.30;;;0.90;;
69053;SDS011;56125;52.242;4.756;2023-02-28T08:57:05;1.63;;;0.80;;
69053;SDS011;56125;52.242;4.756;2023-02-28T09:02:07;1.83;;;1.00;;
69053;SDS011;56125;52.242;4.756;2023-02-28T09:07:09;1.75;;;0.80;;
69053;SDS011;56125;52.242;4.756;2023-02-28T09:12:10;1.48;;;0.75;;
69053;SDS011;56125;52.242;4.756;2023-02-28T09:17:11;1.17;;;0.70;;
69053;SDS011;56125;52.242;4.756;2023-02-28T09:22:12;1.25;;;0.82;;
69053;SDS011;56125;52.242;4.756;2023-02-28T09:27:13;1.38;;;0.90;;
69053;SDS011;56125;52.242;4.756;2023-02-28T09:32:14;1.58;;;0.88;;
69053;SDS011;56125;52.242;4.756;2023-02-28T09:37:16;0.88;;;0.73;;
69053;SDS011;56125;52.242;4.756;2023-02-28T09:42:18;1.42;;;0.93;;
69053;SDS011;56125;52.242;4.756;2023-02-28T09:47:36;0.90;;;0.80;;
69053;SDS011;56125;52.242;4.756;2023-02-28T09:52:45;1.88;;;0.85;;
69053;SDS011;56125;52.242;4.756;2023-02-28T09:57:48;1.52;;;0.73;;
69053;SDS011;56125;52.242;4.756;2023-02-28T10:02:53;1.00;;;0.80;;
69053;SDS011;56125;52.242;4.756;2023-02-28T10:13:27;0.85;;;0.80;;
69053;SDS011;56125;52.242;4.756;2023-02-28T10:23:45;1.05;;;0.88;;
69053;SDS011;56125;52.242;4.756;2023-02-28T10:28:48;0.82;;;0.80;;
69053;SDS011;56125;52.242;4.756;2023-02-28T10:33:49;1.33;;;0.90;;
69053;SDS011;56125;52.242;4.756;2023-02-28T10:38:50;1.15;;;0.80;;
69053;SDS011;56125;52.242;4.756;2023-02-28T10:43:51;0.95;;;0.77;;
69053;SDS011;56125;52.242;4.756;2023-02-28T10:49:03;1.20;;;0.80;;
69053;SDS011;56125;52.242;4.756;2023-02-28T10:54:06;1.13;;;0.80;;
69053;SDS011;56125;52.242;4.756;2023-02-28T10:59:27;1.17;;;0.80;;
69053;SDS011;56125;52.242;4.756;2023-02-28T11:09:33;1.05;;;0.70;;
69053;SDS011;56125;52.242;4.756;2023-02-28T11:14:40;1.15;;;0.85;;
69053;SDS011;56125;52.242;4.756;2023-02-28T11:19:53;1.10;;;0.80;;
69053;SDS011;56125;52.242;4.756;2023-02-28T11:25:06;1.45;;;0.70;;
69053;SDS011;56125;52.242;4.756;2023-02-28T11:30:24;1.40;;;0.68;;
69053;SDS011;56125;52.242;4.756;2023-02-28T11:35:39;0.88;;;0.70;;
69053;SDS011;56125;52.242;4.756;2023-02-28T11:40:45;1.02;;;0.80;;
69053;SDS011;56125;52.242;4.756;2023-02-28T11:51:23;1.30;;;0.82;;
69053;SDS011;56125;52.242;4.756;2023-02-28T12:13:01;0.95;;;0.68;;
69053;SDS011;56125;52.242;4.756;2023-02-28T12:18:36;0.95;;;0.80;;
69053;SDS011;56125;52.242;4.756;2023-02-28T12:34:29;0.70;;;0.60;;
69053;SDS011;56125;52.242;4.756;2023-02-28T12:39:35;0.75;;;0.65;;
69053;SDS011;56125;52.242;4.756;2023-02-28T12:44:42;0.98;;;0.85;;
69053;SDS011;56125;52.242;4.756;2023-02-28T12:50:02;1.00;;;0.88;;
69053;SDS011;56125;52.242;4.756;2023-02-28T12:55:21;1.00;;;0.68;;
69053;SDS011;56125;52.242;4.756;2023-02-28T13:00:33;2.10;;;0.70;;
69053;SDS011;56125;52.242;4.756;2023-02-28T13:05:45;0.70;;;0.70;;
69053;SDS011;56125;52.242;4.756;2023-02-28T13:10:56;2.47;;;0.70;;
69053;SDS011;56125;52.242;4.756;2023-02-28T13:16:02;1.55;;;0.80;;
69053;SDS011;56125;52.242;4.756;2023-02-28T13:21:07;1.05;;;0.70;;
69053;SDS011;56125;52.242;4.756;2023-02-28T13:26:10;1.20;;;0.77;;
69053;SDS011;56125;52.242;4.756;2023-02-28T13:31:13;0.70;;;0.70;;
69053;SDS011;56125;52.242;4.756;2023-02-28T13:46:29;1.20;;;0.82;;
69053;SDS011;56125;52.242;4.756;2023-02-28T13:56:52;1.30;;;0.70;;
69053;SDS011;56125;52.242;4.756;2023-02-28T14:02:11;2.33;;;1.00;;
69053;SDS011;56125;52.242;4.756;2023-02-28T14:07:33;1.33;;;0.80;;
69053;SDS011;56125;52.242;4.756;2023-02-28T14:12:52;1.08;;;0.88;;
69053;SDS011;56125;52.242;4.756;2023-02-28T14:17:55;1.27;;;0.70;;
69053;SDS011;56125;52.242;4.756;2023-02-28T14:23:09;1.42;;;0.82;;
69053;SDS011;56125;52.242;4.756;2023-02-28T14:28:43;0.68;;;0.60;;
69053;SDS011;56125;52.242;4.756;2023-02-28T14:39:42;1.10;;;0.60;;
69053;SDS011;56125;52.242;4.756;2023-02-28T14:44:44;1.88;;;0.90;;
69053;SDS011;56125;52.242;4.756;2023-02-28T14:49:57;1.00;;;0.70;;
69053;SDS011;56125;52.242;4.756;2023-02-28T14:55:01;0.90;;;0.70;;
69053;SDS011;56125;52.242;4.756;2023-02-28T15:00:12;0.80;;;0.60;;
69053;SDS011;56125;52.242;4.756;2023-02-28T15:10:28;0.77;;;0.75;;
69053;SDS011;56125;52.242;4.756;2023-02-28T15:20:48;0.90;;;0.70;;
69053;SDS011;56125;52.242;4.756;2023-02-28T15:25:51;1.10;;;0.77;;
69053;SDS011;56125;52.242;4.756;2023-02-28T15:30:55;1.00;;;0.80;;
69053;SDS011;56125;52.242;4.756;2023-02-28T15:36:14;0.90;;;0.73;;
69053;SDS011;56125;52.242;4.756;2023-02-28T15:41:24;0.95;;;0.80;;
69053;SDS011;56125;52.242;4.756;2023-02-28T15:46:28;1.10;;;0.80;;
69053;SDS011;56125;52.242;4.756;2023-02-28T15:51:30;0.70;;;0.60;;
69053;SDS011;56125;52.242;4.756;2023-02-28T15:56:35;0.65;;;0.57;;
69053;SDS011;56125;52.242;4.756;2023-02-28T16:01:43;1.42;;;0.88;;
69053;SDS011;56125;52.242;4.756;2023-02-28T16:12:02;1.00;;;0.77;;
69053;SDS011;56125;52.242;4.756;2023-02-28T16:17:07;1.52;;;0.80;;
69053;SDS011;56125;52.242;4.756;2023-02-28T16:22:21;0.85;;;0.60;;
69053;SDS011;56125;52.242;4.756;2023-02-28T16:27:30;1.20;;;0.60;;
69053;SDS011;56125;52.242;4.756;2023-02-28T16:32:36;0.98;;;0.80;;
69053;SDS011;56125;52.242;4.756;2023-02-28T16:37:37;1.45;;;0.80;;
69053;SDS011;56125;52.242;4.756;2023-02-28T16:42:38;1.48;;;0.75;;
69053;SDS011;56125;52.242;4.756;2023-02-28T16:47:39;0.77;;;0.65;;
69053;SDS011;56125;52.242;4.756;2023-02-28T16:52:40;1.07;;;0.77;;
69053;SDS011;56125;52.242;4.756;2023-02-28T16:57:41;1.42;;;0.85;;
69053;SDS011;56125;52.242;4.756;2023-02-28T17:02:43;1.50;;;0.80;;
69053;SDS011;56125;52.242;4.756;2023-02-28T17:07:44;1.65;;;0.70;;
69053;SDS011;56125;52.242;4.756;2023-02-28T17:12:46;1.25;;;0.90;;
69053;SDS011;56125;52.242;4.756;2023-02-28T17:17:47;1.30;;;0.70;;
69053;SDS011;56125;52.242;4.756;2023-02-28T17:22:50;1.20;;;0.75;;
69053;SDS011;56125;52.242;4.756;2023-02-28T17:27:51;1.15;;;0.80;;
69053;SDS011;56125;52.242;4.756;2023-02-28T17:32:53;1.20;;;0.90;;
69053;SDS011;56125;52.242;4.756;2023-02-28T17:37:57;1.45;;;0.90;;
69053;SDS011;56125;52.242;4.756;2023-02-28T17:42:58;1.20;;;0.70;;
69053;SDS011;56125;52.242;4.756;2023-02-28T17:47:59;1.00;;;0.80;;
69053;SDS011;56125;52.242;4.756;2023-02-28T17:53:00;0.93;;;0.82;;
69053;SDS011;56125;52.242;4.756;2023-02-28T17:58:02;1.25;;;0.90;;
69053;SDS011;56125;52.242;4.756;2023-02-28T18:03:03;1.00;;;0.80;;
69053;SDS011;56125;52.242;4.756;2023-02-28T18:08:04;1.42;;;0.80;;
69053;SDS011;56125;52.242;4.756;2023-02-28T18:13:05;0.70;;;0.60;;
69053;SDS011;56125;52.242;4.756;2023-02-28T18:18:06;1.65;;;1.20;;
69053;SDS011;56125;52.242;4.756;2023-02-28T18:23:07;0.95;;;0.70;;
69053;SDS011;56125;52.242;4.756;2023-02-28T18:28:09;0.88;;;0.88;;
69053;SDS011;56125;52.242;4.756;2023-02-28T18:33:10;1.13;;;0.80;;
69053;SDS011;56125;52.242;4.756;2023-02-28T18:38:14;1.13;;;0.85;;
69053;SDS011;56125;52.242;4.756;2023-02-28T18:43:19;0.90;;;0.85;;
69053;SDS011;56125;52.242;4.756;2023-02-28T18:48:20;1.90;;;0.77;;
69053;SDS011;56125;52.242;4.756;2023-02-28T18:53:22;1.10;;;0.90;;
69053;SDS011;56125;52.242;4.756;2023-02-28T18:58:23;1.48;;;1.10;;
69053;SDS011;56125;52.242;4.756;2023-02-28T19:03:24;2.65;;;0.90;;
69053;SDS011;56125;52.242;4.756;2023-02-28T19:08:26;1.52;;;1.10;;
69053;SDS011;56125;52.242;4.756;2023-02-28T19:13:27;1.55;;;0.90;;
69053;SDS011;56125;52.242;4.756;2023-02-28T19:18:28;1.55;;;1.10;;
69053;SDS011;56125;52.242;4.756;2023-02-28T19:23:30;1.63;;;1.08;;
69053;SDS011;56125;52.242;4.756;2023-02-28T19:28:31;2.20;;;1.25;;
69053;SDS011;56125;52.242;4.756;2023-02-28T19:33:32;1.60;;;1.10;;
69053;SDS011;56125;52.242;4.756;2023-02-28T19:38:33;1.60;;;1.35;;
69053;SDS011;56125;52.242;4.756;2023-02-28T19:43:34;2.10;;;1.23;;
69053;SDS011;56125;52.242;4.756;2023-02-28T19:48:35;1.58;;;1.00;;
69053;SDS011;56125;52.242;4.756;2023-02-28T19:53:37;1.50;;;1.10;;
69053;SDS011;56125;52.242;4.756;2023-02-28T19:58:40;1.48;;;1.00;;
69053;SDS011;56125;52.242;4.756;2023-02-28T20:03:41;1.48;;;1.20;;
69053;SDS011;56125;52.242;4.756;2023-02-28T20:08:43;3.55;;;1.60;;
69053;SDS011;56125;52.242;4.756;2023-02-28T20:13:44;2.17;;;1.30;;
69053;SDS011;56125;52.242;4.756;2023-02-28T20:18:48;1.55;;;1.02;;
69053;SDS011;56125;52.242;4.756;2023-02-28T20:23:53;1.38;;;0.90;;
69053;SDS011;56125;52.242;4.756;2023-02-28T20:28:54;2.42;;;1.15;;
69053;SDS011;56125;52.242;4.756;2023-02-28T20:33:55;1.52;;;1.10;;
69053;SDS011;56125;52.242;4.756;2023-02-28T20:38:56;1.70;;;1.30;;
69053;SDS011;56125;52.242;4.756;2023-02-28T20:43:57;2.67;;;1.15;;
69053;SDS011;56125;52.242;4.756;2023-02-28T20:49:01;2.45;;;1.50;;
69053;SDS011;56125;52.242;4.756;2023-02-28T20:54:02;2.00;;;1.35;;
69053;SDS011;56125;52.242;4.756;2023-02-28T20:59:03;2.33;;;1.20;;
69053;SDS011;56125;52.242;4.756;2023-02-28T21:04:05;2.40;;;1.40;;
69053;SDS011;56125;52.242;4.756;2023-02-28T21:09:07;3.53;;;1.20;;
69053;SDS011;56125;52.242;4.756;2023-02-28T21:14:11;1.67;;;1.30;;
69053;SDS011;56125;52.242;4.756;2023-02-28T21:19:15;1.40;;;1.30;;
69053;SDS011;56125;52.242;4.756;2023-02-28T21:24:17;2.92;;;1.20;;
69053;SDS011;56125;52.242;4.756;2023-02-28T21:29:19;2.85;;;1.85;;
69053;SDS011;56125;52.242;4.756;2023-02-28T21:34:20;1.67;;;1.33;;
69053;SDS011;56125;52.242;4.756;2023-02-28T21:39:22;2.15;;;1.30;;
69053;SDS011;56125;52.242;4.756;2023-02-28T21:44:25;2.47;;;1.30;;
69053;SDS011;56125;52.242;4.756;2023-02-28T21:49:27;1.73;;;1.30;;
69053;SDS011;56125;52.242;4.756;2023-02-28T21:54:28;3.33;;;1.05;;
69053;SDS011;56125;52.242;4.756;2023-02-28T21:59:29;1.67;;;1.40;;
69053;SDS011;56125;52.242;4.756;2023-02-28T22:04:31;2.65;;;1.40;;
69053;SDS011;56125;52.242;4.756;2023-02-28T22:09:32;2.80;;;1.50;;
69053;SDS011;56125;52.242;4.756;2023-02-28T22:14:33;2.95;;;1.60;;
69053;SDS011;56125;52.242;4.756;2023-02-28T22:19:34;2.78;;;1.60;;
69053;SDS011;56125;52.242;4.756;2023-02-28T22:24:35;1.75;;;1.50;;
69053;SDS011;56125;52.242;4.756;2023-02-28T22:29:36;4.43;;;1.65;;
69053;SDS011;56125;52.242;4.756;2023-02-28T22:34:37;5.25;;;1.50;;
69053;SDS011;56125;52.242;4.756;2023-02-28T22:39:39;1.98;;;1.55;;
69053;SDS011;56125;52.242;4.756;2023-02-28T22:44:40;2.80;;;1.50;;
69053;SDS011;56125;52.242;4.756;2023-02-28T22:49:41;2.30;;;1.50;;
69053;SDS011;56125;52.242;4.756;2023-02-28T22:54:42;1.63;;;1.25;;
69053;SDS011;56125;52.242;4.756;2023-02-28T22:59:43;3.03;;;1.88;;
69053;SDS011;56125;52.242;4.756;2023-02-28T23:04:44;2.08;;;1.40;;
69053;SDS011;56125;52.242;4.756;2023-02-28T23:09:45;2.28;;;1.55;;
69053;SDS011;56125;52.242;4.756;2023-02-28T23:14:50;2.28;;;1.55;;
69053;SDS011;56125;52.242;4.756;2023-02-28T23:19:52;1.48;;;1.20;;
69053;SDS011;56125;52.242;4.756;2023-02-28T23:24:53;2.13;;;1.30;;
69053;SDS011;56125;52.242;4.756;2023-02-28T23:29:54;2.63;;;1.50;;
69053;SDS011;56125;52.242;4.756;2023-02-28T23:34:55;1.92;;;1.23;;
69053;SDS011;56125;52.242;4.756;2023-02-28T23:39:56;3.53;;;1.70;;
69053;SDS011;56125;52.242;4.756;2023-02-28T23:44:57;2.15;;;1.23;;
69053;SDS011;56125;52.242;4.756;2023-02-28T23:49:58;1.83;;;1.20;;
69053;SDS011;56125;52.242;4.756;2023-02-28T23:54:59;3.35;;;1.48;;
